CLT TRACON Summary / KCLT TAF
CLT TRACON Summary:
A series of upper level disturbances will continue to bring scattered to numerous showers and thunderstorms mostly west of CLT. Expect mostly low-VFR conditions outside of convection. Surface winds will be southwest at 5kts. Flight Hazards in the TRACON airspace outside of convection: None expected.

Updated: 7/04/2015 8:20 PM
CLT Terminal Aerodrome Forecast:

FTUS42 KGSP 042328
TAFCLT
TAF
KCLT 042328Z 0500/0524 25008KT P6SM FEW050 BKN100
     FM050900 23003KT P6SM FEW020 BKN080
     FM051500 22007KT P6SM FEW050 BKN100
     FM051800 23008G16KT P6SM SCT060 BKN120 PROB30 0518/0522 TSRA
      BKN050CB=
CLT TRACON Area Remark:
ISOLATED TS POSSIBLE ALL QUADS UNTIL 04Z AND AFTER 09Z.
Convective Gate Forecast / Collaborative Convective Forecast Product / Vertical Wind Profile
Gate Forecast
SIGMETS/ Southeast Radar & Satellite Loops (click on image to enlarge)

Southeast Radar Loop

 



USA.gov is the U.S. government's official web portal to all federal, state and local government web resources and services.